Time;durP1;ratioP1;P1;durP2;ratioP2;P2;SDS_P1;SDS_P2;PMS_P1;PMS_P2;Temp;Humidity;BMP_temperature;BMP_pressure;BME280_temperature;BME280_humidity;BME280_pressure;Samples;Min_cycle;Max_cycle;Signal;HPM_P1;HPM_P2
2022/04/02 00:02:01;;;;;;;14.15;11.75;;;0.20;99.90;;;;;;5032500;28;20026;-69
2022/04/02 00:04:27;;;;;;;14.88;12.55;;;0.20;99.90;;;;;;5032545;28;20496;-75
2022/04/02 00:06:54;;;;;;;16.20;13.85;;;0.20;99.90;;;;;;5032507;28;20096;-73
2022/04/02 00:09:20;;;;;;;15.48;13.10;;;0.20;99.90;;;;;;5032382;28;20049;-72
2022/04/02 00:11:46;;;;;;;15.00;12.85;;;0.20;99.90;;;;;;5032261;28;20111;-75
2022/04/02 00:14:12;;;;;;;13.25;11.82;;;0.30;99.90;;;;;;5032146;28;20037;-75
2022/04/02 00:16:38;;;;;;;15.18;13.02;;;0.30;99.90;;;;;;5032435;28;20037;-75
2022/04/02 00:19:04;;;;;;;16.13;14.40;;;0.30;99.90;;;;;;5032409;28;20045;-75
2022/04/02 00:21:29;;;;;;;16.35;14.27;;;0.30;99.90;;;;;;5032558;28;20044;-74
2022/04/02 00:23:55;;;;;;;16.48;14.00;;;0.20;99.90;;;;;;5032587;28;20052;-69
2022/04/02 00:26:21;;;;;;;17.40;14.07;;;0.20;99.90;;;;;;5048259;28;20029;-75
2022/04/02 00:28:48;;;;;;;16.65;14.32;;;0.30;99.90;;;;;;5033328;28;20041;-68
2022/04/02 00:31:15;;;;;;;17.65;14.88;;;0.30;99.90;;;;;;5031883;28;20136;-75
2022/04/02 00:33:43;;;;;;;16.67;14.45;;;0.20;99.90;;;;;;5032395;28;20047;-75
2022/04/02 00:36:10;;;;;;;16.13;13.85;;;0.20;99.90;;;;;;5032394;28;20045;-75
2022/04/02 00:38:37;;;;;;;17.60;14.73;;;0.20;99.90;;;;;;5032210;28;20462;-70
2022/04/02 00:41:03;;;;;;;18.77;15.63;;;0.20;99.90;;;;;;5032491;28;20064;-75
2022/04/02 00:43:35;;;;;;;18.08;14.68;;;0.20;99.90;;;;;;5035524;28;20453;-70
2022/04/02 00:46:06;;;;;;;16.35;14.15;;;0.10;99.90;;;;;;5035541;28;20413;-74
2022/04/02 00:48:32;;;;;;;17.90;14.25;;;0.10;99.90;;;;;;5035253;28;20038;-75
2022/04/02 00:51:00;;;;;;;19.02;15.45;;;0.10;99.90;;;;;;5035204;28;20563;-76
2022/04/02 00:53:31;;;;;;;17.15;14.93;;;0.10;99.90;;;;;;5035298;28;20112;-73
2022/04/02 00:55:58;;;;;;;19.33;15.00;;;0.10;99.90;;;;;;5035539;28;20045;-69
2022/04/02 00:58:24;;;;;;;16.08;14.38;;;0.10;99.90;;;;;;5035555;28;20034;-76
2022/04/02 01:00:50;;;;;;;19.73;15.05;;;0.10;99.90;;;;;;5035543;28;20151;-76
2022/04/02 01:03:16;;;;;;;19.67;16.70;;;0.10;99.90;;;;;;5035510;28;20052;-76
2022/04/02 01:05:43;;;;;;;18.42;15.18;;;0.10;99.90;;;;;;5035531;28;20033;-72
2022/04/02 01:08:09;;;;;;;18.75;15.90;;;0.00;99.90;;;;;;5035596;28;20037;-77
2022/04/02 01:10:38;;;;;;;18.45;15.80;;;0.10;99.90;;;;;;5035404;28;20508;-76
2022/04/02 01:13:05;;;;;;;17.80;14.52;;;0.00;99.90;;;;;;5030977;28;20566;-76
2022/04/02 01:15:31;;;;;;;19.02;15.75;;;0.00;99.90;;;;;;5032879;28;20111;-76
2022/04/02 01:17:57;;;;;;;20.85;16.55;;;0.00;99.90;;;;;;5034722;28;20073;-73
2022/04/02 01:20:24;;;;;;;18.95;15.95;;;0.00;99.90;;;;;;5035160;28;20128;-74
2022/04/02 01:22:50;;;;;;;19.70;16.42;;;0.00;99.90;;;;;;5033490;28;20075;-69
2022/04/02 01:25:16;;;;;;;22.00;17.55;;;-0.10;99.90;;;;;;5033158;28;20041;-74
2022/04/02 01:27:46;;;;;;;21.75;17.50;;;-0.10;99.90;;;;;;5034924;28;20509;-74
2022/04/02 01:30:14;;;;;;;20.90;17.35;;;-0.10;99.90;;;;;;5033557;28;20060;-72
2022/04/02 01:32:41;;;;;;;20.13;17.00;;;-0.10;99.90;;;;;;5033568;28;20136;-72
2022/04/02 01:35:08;;;;;;;20.48;17.25;;;-0.10;99.90;;;;;;5034328;28;20498;-77
2022/04/02 01:37:38;;;;;;;21.85;18.25;;;-0.10;99.90;;;;;;5034502;28;20022;-77
2022/04/02 01:40:06;;;;;;;22.38;17.08;;;-0.20;99.90;;;;;;5034361;28;20041;-77
2022/04/02 01:42:32;;;;;;;21.88;18.92;;;-0.20;99.90;;;;;;5034419;28;20067;-77
2022/04/02 01:44:59;;;;;;;23.08;17.95;;;-0.30;99.90;;;;;;5032976;28;20029;-73
2022/04/02 01:47:25;;;;;;;22.83;18.95;;;-0.30;99.90;;;;;;5033973;28;20049;-77
2022/04/02 01:49:51;;;;;;;22.45;17.83;;;-0.30;99.90;;;;;;5051126;28;20043;-77
2022/04/02 01:52:19;;;;;;;22.27;18.88;;;-0.40;99.90;;;;;;5054207;28;20087;-77
2022/04/02 01:54:46;;;;;;;23.25;19.48;;;-0.40;99.90;;;;;;5053442;28;20461;-77
2022/04/02 01:57:12;;;;;;;23.05;17.90;;;-0.30;99.90;;;;;;5054385;28;20043;-76
2022/04/02 01:59:40;;;;;;;22.60;18.05;;;-0.40;99.90;;;;;;5054280;28;20129;-74
2022/04/02 02:02:07;;;;;;;20.90;16.80;;;-0.40;99.90;;;;;;5054485;28;20400;-76
2022/04/02 02:04:33;;;;;;;22.60;17.70;;;-0.50;99.90;;;;;;5054233;28;20032;-77
2022/04/02 02:07:00;;;;;;;20.98;18.13;;;-0.50;99.90;;;;;;5044946;28;20072;-77
2022/04/02 02:09:26;;;;;;;21.00;17.25;;;-0.50;99.90;;;;;;5033964;28;20042;-77
2022/04/02 02:11:52;;;;;;;21.25;17.23;;;-0.50;99.90;;;;;;5033846;28;20536;-78
2022/04/02 02:14:17;;;;;;;20.77;16.50;;;-0.50;99.90;;;;;;5034054;28;20129;-78
2022/04/02 02:16:43;;;;;;;19.02;16.15;;;-0.50;99.90;;;;;;5033952;28;20520;-74
2022/04/02 02:19:09;;;;;;;19.67;16.15;;;-0.50;99.90;;;;;;5033633;28;20396;-75
2022/04/02 02:21:35;;;;;;;20.33;16.67;;;-0.50;99.90;;;;;;5033650;28;20045;-77
2022/04/02 02:24:01;;;;;;;19.98;16.00;;;-0.40;99.90;;;;;;5033929;28;20065;-78
2022/04/02 02:26:27;;;;;;;17.90;14.93;;;-0.50;99.90;;;;;;5040240;28;20552;-78
2022/04/02 02:28:53;;;;;;;20.98;17.60;;;-0.50;99.90;;;;;;5033576;28;20045;-78
2022/04/02 02:31:18;;;;;;;20.42;16.02;;;-0.50;99.90;;;;;;5035772;28;20387;-78
2022/04/02 02:36:28;;;;;;;18.13;14.63;;;-0.50;99.90;;;;;;5033548;28;20036;-72
2022/04/02 02:38:56;;;;;;;17.80;14.45;;;-0.50;99.90;;;;;;5032739;28;20057;-78
2022/04/02 02:41:22;;;;;;;16.58;14.65;;;-0.60;99.90;;;;;;5031960;28;20080;-78
2022/04/02 02:43:47;;;;;;;17.48;14.77;;;-0.50;99.90;;;;;;5033157;28;20073;-79
2022/04/02 02:46:14;;;;;;;19.23;15.10;;;-0.60;99.90;;;;;;5032051;28;20037;-72
2022/04/02 02:48:47;;;;;;;17.83;15.32;;;-0.60;99.90;;;;;;5040284;28;20489;-78
2022/04/02 02:51:13;;;;;;;17.52;14.82;;;-0.60;99.90;;;;;;5053921;28;20080;-78
2022/04/02 02:53:40;;;;;;;16.45;14.40;;;-0.60;99.90;;;;;;5043403;28;20057;-78
2022/04/02 02:56:06;;;;;;;16.65;14.68;;;-0.60;99.90;;;;;;5039164;28;20397;-78
2022/04/02 02:58:32;;;;;;;16.30;13.38;;;-0.60;99.90;;;;;;5039122;28;20401;-75
2022/04/02 03:00:59;;;;;;;19.02;14.30;;;-0.60;99.90;;;;;;5040174;28;20041;-79
2022/04/02 03:03:25;;;;;;;16.58;14.35;;;-0.60;99.90;;;;;;5041910;28;20068;-72
2022/04/02 03:05:51;;;;;;;17.80;14.95;;;-0.60;99.90;;;;;;5038883;28;20121;-70
2022/04/02 03:08:16;;;;;;;17.02;14.23;;;-0.70;99.90;;;;;;5038876;28;20470;-79
2022/04/02 03:10:44;;;;;;;16.48;14.43;;;-0.70;99.90;;;;;;5040211;28;20048;-69
2022/04/02 03:13:10;;;;;;;17.60;13.55;;;-0.60;99.90;;;;;;5039105;28;20041;-79
2022/04/02 03:15:36;;;;;;;16.65;14.13;;;-0.60;99.90;;;;;;5037604;28;20116;-79
2022/04/02 03:18:08;;;;;;;15.55;13.80;;;-0.70;99.90;;;;;;5038950;28;20132;-76
2022/04/02 03:20:35;;;;;;;15.63;12.80;;;-0.60;99.90;;;;;;5038811;28;20033;-73
2022/04/02 03:23:02;;;;;;;15.55;12.95;;;-0.50;99.90;;;;;;5039386;28;20040;-70
2022/04/02 03:25:27;;;;;;;16.00;13.98;;;-0.60;99.90;;;;;;5045996;28;20074;-73
2022/04/02 03:27:53;;;;;;;14.73;12.70;;;-0.60;99.90;;;;;;5045485;28;20097;-79
2022/04/02 03:30:22;;;;;;;15.60;13.18;;;-0.60;99.90;;;;;;5043562;28;20060;-71
2022/04/02 03:32:48;;;;;;;14.90;13.00;;;-0.60;99.90;;;;;;5040617;28;20049;-79
2022/04/02 03:35:15;;;;;;;15.48;13.32;;;-0.60;99.90;;;;;;5037856;28;20048;-79
2022/04/02 03:37:43;;;;;;;16.17;14.10;;;-0.60;99.90;;;;;;5042369;28;20044;-79
2022/04/02 03:40:14;;;;;;;14.38;12.52;;;-0.60;99.90;;;;;;5040465;28;20045;-77
2022/04/02 03:42:41;;;;;;;14.38;12.68;;;-0.60;99.90;;;;;;5040799;28;20409;-79
2022/04/02 03:45:09;;;;;;;15.82;13.10;;;-0.50;99.90;;;;;;5039991;28;20053;-73
2022/04/02 03:47:35;;;;;;;15.25;12.57;;;-0.50;99.90;;;;;;5039019;28;20042;-79
2022/04/02 03:50:01;;;;;;;15.05;13.38;;;-0.60;99.90;;;;;;5056406;28;20109;-80
2022/04/02 03:52:27;;;;;;;16.35;14.15;;;-0.60;99.90;;;;;;5061778;28;20053;-70
2022/04/02 03:54:53;;;;;;;15.98;13.65;;;-0.60;99.90;;;;;;5058511;28;20040;-79
2022/04/02 03:57:19;;;;;;;17.33;13.43;;;-0.60;99.90;;;;;;5061236;28;20036;-78
2022/04/02 03:59:46;;;;;;;16.08;13.98;;;-0.60;99.90;;;;;;5063240;28;20029;-78
2022/04/02 04:02:12;;;;;;;15.95;13.02;;;-0.60;99.90;;;;;;5061564;28;20060;-80
2022/04/02 04:04:39;;;;;;;16.67;12.88;;;-0.60;99.90;;;;;;5059295;28;20036;-73
2022/04/02 04:07:06;;;;;;;15.93;13.20;;;-0.60;99.90;;;;;;5063062;28;20033;-79
2022/04/02 04:09:33;;;;;;;14.95;13.18;;;-0.60;99.90;;;;;;5061847;28;20060;-79
2022/04/02 04:11:59;;;;;;;14.65;12.77;;;-0.60;99.90;;;;;;5056814;28;20431;-76
2022/04/02 04:14:25;;;;;;;16.23;12.65;;;-0.50;99.90;;;;;;5057783;28;20036;-79
2022/04/02 04:16:53;;;;;;;15.57;12.95;;;-0.60;99.90;;;;;;5059886;28;20044;-80
2022/04/02 04:19:20;;;;;;;15.02;12.70;;;-0.60;99.90;;;;;;5060006;28;20032;-80
2022/04/02 04:21:46;;;;;;;15.60;13.30;;;-0.60;99.90;;;;;;5061496;28;20044;-80
2022/04/02 04:24:14;;;;;;;17.50;13.88;;;-0.60;99.90;;;;;;5063016;28;20041;-80
2022/04/02 04:26:41;;;;;;;15.75;13.25;;;-0.60;99.90;;;;;;5037677;28;20429;-68
2022/04/02 04:29:07;;;;;;;17.63;13.95;;;-0.70;99.90;;;;;;5043489;28;20040;-81
2022/04/02 04:31:34;;;;;;;17.95;13.88;;;-0.80;99.90;;;;;;5039140;28;20867;-80
2022/04/02 04:34:00;;;;;;;18.05;14.55;;;-0.70;99.90;;;;;;5034881;28;20045;-80
2022/04/02 04:36:26;;;;;;;17.15;14.57;;;-0.80;99.90;;;;;;5037619;28;20044;-71
2022/04/02 04:38:52;;;;;;;18.00;15.07;;;-0.80;99.90;;;;;;5045440;28;20068;-72
2022/04/02 04:41:18;;;;;;;18.10;14.48;;;-0.80;99.90;;;;;;5032527;28;20049;-68
2022/04/02 04:43:49;;;;;;;19.05;15.93;;;-0.80;99.90;;;;;;5034457;28;20538;-70
2022/04/02 04:46:16;;;;;;;18.70;16.25;;;-0.80;99.90;;;;;;5035921;28;20052;-72
2022/04/02 04:48:42;;;;;;;17.95;15.50;;;-0.80;99.90;;;;;;5035653;28;20045;-73
2022/04/02 04:51:09;;;;;;;22.27;17.02;;;-0.80;99.90;;;;;;5030989;28;20140;-81
2022/04/02 04:53:35;;;;;;;17.98;14.57;;;-0.90;99.90;;;;;;5014860;28;20061;-76
2022/04/02 04:56:01;;;;;;;17.70;15.05;;;-0.90;99.90;;;;;;5013533;28;20034;-79
2022/04/02 04:58:30;;;;;;;18.48;15.82;;;-0.80;99.90;;;;;;5012957;28;20044;-80
2022/04/02 05:00:57;;;;;;;19.10;15.70;;;-0.90;99.90;;;;;;5010549;28;20072;-78
2022/04/02 05:03:24;;;;;;;19.23;16.23;;;-0.90;99.90;;;;;;5012085;28;20367;-70
2022/04/02 05:05:52;;;;;;;18.35;16.02;;;-0.90;99.90;;;;;;5012031;28;20041;-79
2022/04/02 05:08:20;;;;;;;20.48;16.75;;;-0.90;99.90;;;;;;5001482;28;20029;-80
2022/04/02 05:10:47;;;;;;;20.85;17.67;;;-0.90;99.90;;;;;;5009508;28;20046;-79
2022/04/02 05:13:14;;;;;;;19.13;16.40;;;-0.90;99.90;;;;;;5010833;28;20144;-71
2022/04/02 05:15:45;;;;;;;21.67;17.40;;;-0.90;99.90;;;;;;4993876;28;20046;-80
2022/04/02 05:18:20;;;;;;;79.53;54.38;;;-0.90;99.90;;;;;;4998523;28;20554;-80
2022/04/02 05:20:47;;;;;;;22.30;18.27;;;-0.90;99.90;;;;;;5013260;28;20125;-81
2022/04/02 05:23:16;;;;;;;19.98;17.13;;;-0.90;99.90;;;;;;5012540;28;20041;-74
2022/04/02 05:25:42;;;;;;;21.08;15.88;;;-0.90;99.90;;;;;;5011975;28;20276;-76
2022/04/02 05:28:09;;;;;;;20.55;16.13;;;-1.00;99.90;;;;;;5011249;28;20046;-79
2022/04/02 05:30:39;;;;;;;23.00;17.30;;;-0.90;99.90;;;;;;4995595;28;20045;-79
2022/04/02 05:33:06;;;;;;;20.98;17.50;;;-0.90;99.90;;;;;;5012233;28;20092;-79
2022/04/02 05:35:32;;;;;;;20.70;17.48;;;-1.00;99.90;;;;;;5013458;28;20613;-76
2022/04/02 05:37:58;;;;;;;20.75;17.33;;;-1.00;99.90;;;;;;5011101;28;20058;-74
2022/04/02 05:40:24;;;;;;;22.02;16.50;;;-1.00;99.90;;;;;;5012547;28;20092;-78
2022/04/02 05:42:52;;;;;;;19.42;16.10;;;-1.00;99.90;;;;;;5013278;28;20120;-72
2022/04/02 05:45:18;;;;;;;21.55;17.70;;;-1.00;99.90;;;;;;5012914;28;20124;-75
2022/04/02 05:47:53;;;;;;;18.73;15.65;;;-0.90;99.90;;;;;;5012956;28;20081;-79
2022/04/02 05:50:23;;;;;;;20.58;17.52;;;-1.00;99.90;;;;;;5012768;28;20091;-79
2022/04/02 05:52:49;;;;;;;24.17;18.25;;;-1.00;99.90;;;;;;5012599;28;20089;-79
2022/04/02 05:55:17;;;;;;;22.05;18.05;;;-1.00;99.90;;;;;;5014763;28;20071;-77
2022/04/02 05:57:46;;;;;;;20.00;17.85;;;-1.00;99.90;;;;;;5012442;28;20085;-69
2022/04/02 06:00:17;;;;;;;21.60;16.80;;;-1.00;99.90;;;;;;4994341;28;20041;-77
2022/04/02 06:02:45;;;;;;;20.25;17.35;;;-1.00;99.90;;;;;;4995900;28;20109;-77
2022/04/02 06:05:13;;;;;;;18.67;16.15;;;-0.90;99.90;;;;;;5012012;28;20087;-78
2022/04/02 06:07:41;;;;;;;18.10;15.27;;;-0.90;99.90;;;;;;4994976;28;20042;-75
2022/04/02 06:10:09;;;;;;;18.42;16.27;;;-0.90;99.90;;;;;;5012339;28;20092;-76
2022/04/02 06:12:35;;;;;;;19.13;16.00;;;-0.90;99.90;;;;;;5014274;28;20386;-76
2022/04/02 06:15:01;;;;;;;15.80;14.10;;;-0.90;99.90;;;;;;5014643;28;20763;-74
2022/04/02 06:17:27;;;;;;;15.52;13.90;;;-0.90;99.90;;;;;;5013204;28;20161;-70
2022/04/02 06:19:54;;;;;;;14.40;12.75;;;-0.90;99.90;;;;;;5012660;28;20079;-69
2022/04/02 06:22:20;;;;;;;16.52;13.50;;;-0.80;99.90;;;;;;5012301;28;20041;-69
2022/04/02 06:24:48;;;;;;;16.52;14.80;;;-0.80;99.90;;;;;;5012241;28;20498;-69
2022/04/02 06:27:14;;;;;;;13.65;12.02;;;-0.80;99.90;;;;;;5012649;28;20050;-75
2022/04/02 06:29:40;;;;;;;15.50;13.40;;;-0.80;99.90;;;;;;5013201;28;20037;-69
2022/04/02 06:32:06;;;;;;;13.93;11.75;;;-0.80;99.90;;;;;;5011876;28;20510;-79
2022/04/02 06:34:31;;;;;;;14.45;11.45;;;-0.80;99.90;;;;;;5017803;28;20047;-79
2022/04/02 06:36:57;;;;;;;13.63;12.23;;;-0.80;99.90;;;;;;5031582;28;20500;-79
2022/04/02 06:39:23;;;;;;;12.40;11.10;;;-0.80;99.90;;;;;;5031735;28;20042;-72
2022/04/02 06:41:49;;;;;;;12.43;11.15;;;-0.70;99.90;;;;;;5031624;28;20481;-69
2022/04/02 06:44:15;;;;;;;11.57;10.35;;;-0.70;99.90;;;;;;5031112;28;20516;-79
2022/04/02 06:46:42;;;;;;;12.13;10.27;;;-0.70;99.90;;;;;;5031496;28;20068;-79
2022/04/02 06:49:09;;;;;;;12.25;10.43;;;-0.70;99.90;;;;;;5041828;28;20044;-76
2022/04/02 06:51:36;;;;;;;10.70;9.60;;;-0.70;99.90;;;;;;5039131;28;20045;-68
2022/04/02 06:54:01;;;;;;;12.15;10.85;;;-0.70;99.90;;;;;;5046636;28;20076;-69
2022/04/02 06:56:27;;;;;;;10.80;9.70;;;-0.60;99.90;;;;;;5031443;28;20045;-79
2022/04/02 06:58:53;;;;;;;11.13;10.02;;;-0.60;99.90;;;;;;5031848;28;20439;-79
2022/04/02 07:01:19;;;;;;;11.30;10.10;;;-0.60;99.90;;;;;;5031905;28;20543;-79
2022/04/02 07:03:45;;;;;;;11.68;10.13;;;-0.60;99.90;;;;;;5032776;28;20409;-79
2022/04/02 07:06:10;;;;;;;13.18;10.45;;;-0.60;99.90;;;;;;5032573;28;21177;-79
2022/04/02 07:08:37;;;;;;;10.88;9.77;;;-0.50;99.90;;;;;;5033238;28;20034;-80
2022/04/02 07:11:03;;;;;;;10.98;9.70;;;-0.50;99.90;;;;;;5032364;28;20041;-80
2022/04/02 07:13:29;;;;;;;11.77;10.60;;;-0.50;99.90;;;;;;5033187;28;20441;-80
2022/04/02 07:15:56;;;;;;;10.98;9.88;;;-0.50;99.90;;;;;;5033024;28;20037;-80
2022/04/02 07:18:24;;;;;;;11.60;10.40;;;-0.50;99.90;;;;;;5032269;28;20405;-70
2022/04/02 07:20:51;;;;;;;10.13;9.13;;;-0.40;99.90;;;;;;5030849;28;20089;-79
2022/04/02 07:23:18;;;;;;;11.43;10.13;;;-0.40;99.90;;;;;;5032297;28;20040;-79
2022/04/02 07:25:44;;;;;;;10.88;9.85;;;-0.40;99.90;;;;;;5032206;28;20033;-71
2022/04/02 07:28:10;;;;;;;11.52;9.88;;;-0.30;99.90;;;;;;5032435;28;20041;-77
2022/04/02 07:30:37;;;;;;;10.63;9.55;;;-0.30;99.90;;;;;;5031461;28;20040;-79
2022/04/02 07:33:03;;;;;;;10.60;9.55;;;-0.30;99.90;;;;;;5031914;28;20041;-72
2022/04/02 07:35:44;;;;;;;10.43;9.32;;;-0.40;99.90;;;;;;5031642;28;20440;-75
2022/04/02 07:38:16;;;;;;;9.80;8.80;;;-0.30;99.90;;;;;;5032077;28;20099;-79
2022/04/02 07:41:07;;;;;;;13.60;12.20;;;-0.30;99.90;;;;;;5032158;28;20038;-78
2022/04/02 07:44:01;;;;;;;12.98;11.60;;;-0.30;99.90;;;;;;5032072;28;20041;-78
2022/04/02 07:46:30;;;;;;;11.63;10.43;;;-0.20;99.90;;;;;;5031847;28;20057;-79
2022/04/02 07:48:57;;;;;;;10.02;8.93;;;-0.20;99.90;;;;;;5040594;28;20633;-79
2022/04/02 07:51:28;;;;;;;11.85;10.65;;;-0.20;99.90;;;;;;5051865;28;20167;-79
2022/04/02 07:53:55;;;;;;;10.15;9.15;;;-0.20;99.90;;;;;;5055990;28;20037;-79
2022/04/02 07:56:46;;;;;;;11.93;9.55;;;-0.20;99.90;;;;;;5055790;28;20041;-78
2022/04/02 07:59:20;;;;;;;12.35;11.05;;;-0.10;99.90;;;;;;5056005;28;20041;-79
2022/04/02 08:01:48;;;;;;;10.90;9.38;;;-0.10;99.90;;;;;;5055960;28;20392;-79
2022/04/02 08:04:16;;;;;;;11.20;10.00;;;-0.10;99.90;;;;;;5044999;28;20616;-78
2022/04/02 08:06:43;;;;;;;11.43;10.27;;;-0.20;99.90;;;;;;5035794;28;20045;-77
2022/04/02 08:09:10;;;;;;;12.27;10.80;;;-0.10;99.90;;;;;;5036030;28;20412;-78
2022/04/02 08:11:39;;;;;;;11.68;10.48;;;-0.10;99.90;;;;;;5035138;28;20053;-78
2022/04/02 08:14:07;;;;;;;10.07;9.05;;;-0.10;99.90;;;;;;5035584;28;20443;-73
2022/04/02 08:16:37;;;;;;;10.60;9.50;;;0.00;99.90;;;;;;5035614;28;20045;-77
2022/04/02 08:19:03;;;;;;;13.43;10.27;;;-0.10;99.90;;;;;;5035788;28;20064;-75
2022/04/02 08:21:30;;;;;;;28.52;10.90;;;0.00;99.90;;;;;;5035551;28;20064;-76
2022/04/02 08:23:55;;;;;;;11.65;10.45;;;0.00;99.90;;;;;;5035333;28;20053;-77
2022/04/02 08:26:32;;;;;;;11.90;10.60;;;0.00;99.90;;;;;;5034821;28;20573;-75
2022/04/02 08:29:16;;;;;;;11.90;10.65;;;0.00;99.90;;;;;;5035424;28;20045;-76
2022/04/02 08:31:57;;;;;;;12.05;10.57;;;-0.10;99.90;;;;;;5035194;28;20047;-75
2022/04/02 08:34:32;;;;;;;10.50;9.43;;;-0.20;99.90;;;;;;5035322;28;20096;-68
2022/04/02 08:37:11;;;;;;;14.15;10.13;;;-0.20;99.90;;;;;;5035250;28;20116;-75
2022/04/02 08:39:52;;;;;;;12.13;10.93;;;-0.20;99.90;;;;;;5035364;28;20073;-75
2022/04/02 08:42:56;;;;;;;10.32;9.32;;;-0.10;99.90;;;;;;5035051;28;20033;-73
2022/04/02 08:45:33;;;;;;;12.15;10.40;;;-0.10;99.90;;;;;;5041624;28;20477;-74
2022/04/02 08:48:27;;;;;;;11.77;9.88;;;-0.10;99.90;;;;;;5041751;28;20037;-73
2022/04/02 08:51:13;;;;;;;10.93;9.60;;;-0.10;99.90;;;;;;5055100;28;20135;-75
2022/04/02 08:53:52;;;;;;;11.93;10.02;;;-0.10;99.90;;;;;;5042245;28;20520;-74
2022/04/02 08:56:25;;;;;;;12.52;10.13;;;-0.20;99.90;;;;;;5033254;28;20079;-74
2022/04/02 08:59:15;;;;;;;11.25;10.13;;;-0.20;99.90;;;;;;5035443;28;20038;-75
2022/04/02 09:01:42;;;;;;;11.20;9.90;;;-0.20;99.90;;;;;;5033620;28;20037;-73
2022/04/02 09:04:45;;;;;;;11.77;9.40;;;-0.20;99.90;;;;;;5034254;28;20571;-70
2022/04/02 09:07:41;;;;;;;9.95;8.88;;;-0.10;99.90;;;;;;5034376;28;20121;-74
2022/04/02 09:10:44;;;;;;;11.02;9.88;;;-0.10;99.90;;;;;;5032542;28;20076;-74
2022/04/02 09:13:32;;;;;;;23.02;17.52;;;-0.10;99.90;;;;;;5032014;28;20057;-71
2022/04/02 09:16:06;;;;;;;16.27;11.48;;;0.10;99.90;;;;;;5030229;28;20128;-68
2022/04/02 09:18:55;;;;;;;11.00;9.85;;;0.00;99.90;;;;;;5029807;28;20064;-69
2022/04/02 09:21:29;;;;;;;10.95;9.85;;;0.00;99.90;;;;;;5032070;28;20033;-74
2022/04/02 09:24:03;;;;;;;11.68;9.93;;;0.00;99.90;;;;;;5032781;28;20045;-73
2022/04/02 09:27:04;;;;;;;10.40;9.30;;;0.10;99.90;;;;;;5032107;28;20037;-73
2022/04/02 09:29:34;;;;;;;;;;;0.10;99.90;;;;;;5033281;28;20038;-73
2022/04/02 09:32:37;;;;;;;11.43;9.00;;;0.10;99.90;;;;;;5032447;28;19979;-73
2022/04/02 09:35:40;;;;;;;10.63;8.90;;;0.10;99.90;;;;;;5031723;28;20041;-73
2022/04/02 09:38:30;;;;;;;10.68;9.55;;;0.10;99.90;;;;;;5031888;28;20029;-73
2022/04/02 09:41:39;;;;;;;10.40;9.02;;;0.10;99.90;;;;;;5014114;28;20132;-68
2022/04/02 09:44:47;;;;;;;10.65;8.32;;;0.20;99.90;;;;;;5011897;28;20041;-73
2022/04/02 09:47:24;;;;;;;10.60;9.32;;;0.10;99.90;;;;;;5032100;28;20124;-73
2022/04/02 09:50:09;;;;;;;11.73;9.00;;;0.20;99.90;;;;;;5032791;28;20505;-73
2022/04/02 09:52:45;;;;;;;11.70;9.93;;;0.20;99.90;;;;;;5032811;28;20049;-71
2022/04/02 09:55:13;;;;;;;9.43;8.38;;;0.30;99.90;;;;;;5031746;28;20041;-68
2022/04/02 09:57:53;;;;;;;10.13;9.13;;;0.20;99.90;;;;;;5033122;28;20136;-72
2022/04/02 10:00:22;;;;;;;10.55;8.38;;;0.30;99.90;;;;;;5031754;28;20516;-71
2022/04/02 10:03:08;;;;;;;10.50;9.40;;;0.30;99.90;;;;;;5031974;28;20128;-70
2022/04/02 10:05:45;;;;;;;9.60;8.50;;;0.30;99.90;;;;;;5032157;28;20049;-69
2022/04/02 10:08:34;;;;;;;12.15;8.55;;;0.40;99.90;;;;;;5032005;28;20048;-69
2022/04/02 10:11:02;;;;;;;9.85;8.85;;;0.30;99.90;;;;;;5047699;28;20100;-70
2022/04/02 10:13:36;;;;;;;11.40;8.32;;;0.30;99.90;;;;;;5033819;28;20036;-69
2022/04/02 10:16:07;;;;;;;11.73;8.80;;;0.30;99.90;;;;;;5050057;28;20037;-69
2022/04/02 10:18:36;;;;;;;9.52;8.52;;;0.30;99.90;;;;;;5051510;28;20041;-69
2022/04/02 10:21:09;;;;;;;9.00;7.82;;;0.30;99.90;;;;;;5033878;28;20148;-70
2022/04/02 10:23:50;;;;;;;12.13;9.32;;;0.30;99.90;;;;;;5051836;28;20044;-72
2022/04/02 10:26:21;;;;;;;8.98;8.07;;;0.30;99.90;;;;;;5037123;28;20041;-69
2022/04/02 10:28:51;;;;;;;10.15;9.10;;;0.30;99.90;;;;;;5031486;28;20042;-70
2022/04/02 10:31:40;;;;;;;12.40;9.45;;;0.30;99.90;;;;;;5013583;28;20394;-72
2022/04/02 10:34:40;;;;;;;10.65;9.50;;;0.30;99.90;;;;;;5031294;28;20489;-69
2022/04/02 10:37:12;;;;;;;10.20;9.10;;;0.30;99.90;;;;;;5023492;28;20057;-69
2022/04/02 10:39:53;;;;;;;10.48;8.93;;;0.40;99.90;;;;;;5026447;28;20755;-69
2022/04/02 10:42:27;;;;;;;12.52;9.82;;;0.40;99.90;;;;;;5011559;28;20072;-70
2022/04/02 10:45:03;;;;;;;10.25;9.10;;;0.40;99.90;;;;;;5011654;28;20079;-71
2022/04/02 10:47:30;;;;;;;11.13;9.63;;;0.40;99.90;;;;;;5011279;28;20044;-69
2022/04/02 10:50:05;;;;;;;12.00;10.00;;;0.30;99.90;;;;;;5011741;28;20050;-70
2022/04/02 10:52:31;;;;;;;11.05;9.43;;;0.40;99.90;;;;;;5011797;28;20061;-70
2022/04/02 10:54:58;;;;;;;10.63;9.10;;;0.40;99.90;;;;;;5011119;28;20026;-70
2022/04/02 10:57:32;;;;;;;10.60;9.50;;;0.40;99.90;;;;;;5012076;28;20065;-69
2022/04/02 11:00:10;;;;;;;11.02;9.45;;;0.40;99.90;;;;;;5011416;28;20160;-70
2022/04/02 11:02:44;;;;;;;10.40;9.23;;;0.50;99.90;;;;;;5012506;28;20437;-70
2022/04/02 11:05:16;;;;;;;9.48;8.48;;;0.40;99.90;;;;;;4994468;28;20133;-70
2022/04/02 11:07:48;;;;;;;11.55;9.50;;;0.30;99.90;;;;;;5011648;28;20042;-69
2022/04/02 11:10:20;;;;;;;11.15;9.35;;;0.40;99.90;;;;;;5024140;28;20090;-69
2022/04/02 11:12:59;;;;;;;10.88;9.75;;;0.40;99.90;;;;;;5031150;28;20057;-70
2022/04/02 11:15:27;;;;;;;9.68;8.68;;;0.40;99.90;;;;;;5013602;28;20045;-70
2022/04/02 11:17:58;;;;;;;10.98;8.70;;;0.40;99.90;;;;;;5031453;28;20044;-70
2022/04/02 11:20:34;;;;;;;9.97;8.57;;;0.30;99.90;;;;;;5031120;28;20591;-70
2022/04/02 11:23:22;;;;;;;10.90;8.55;;;0.30;99.90;;;;;;5030437;28;20038;-70
2022/04/02 11:25:54;;;;;;;9.90;8.90;;;0.30;99.90;;;;;;5030579;28;20052;-70
2022/04/02 11:28:22;;;;;;;12.48;9.02;;;0.40;99.90;;;;;;5031217;28;20053;-69
2022/04/02 11:30:52;;;;;;;10.30;8.60;;;0.30;99.90;;;;;;5013402;28;20409;-70
2022/04/02 11:33:26;;;;;;;13.95;8.55;;;0.40;99.90;;;;;;5030910;28;20494;-69
2022/04/02 11:36:06;;;;;;;13.43;8.25;;;0.30;99.90;;;;;;5013822;28;20130;-70
2022/04/02 11:39:02;;;;;;;11.67;9.30;;;0.40;99.90;;;;;;5031019;28;20055;-69
2022/04/02 11:41:43;;;;;;;11.90;8.88;;;0.40;99.90;;;;;;5030779;28;20284;-69
2022/04/02 11:44:10;;;;;;;;;;;0.50;99.90;;;;;;5030254;28;20530;-70
2022/04/02 11:47:04;;;;;;;10.10;9.05;;;0.50;99.90;;;;;;5031602;28;19909;-69
2022/04/02 11:49:32;;;;;;;8.90;8.00;;;0.50;99.90;;;;;;5010947;28;20072;-70
2022/04/02 11:52:08;;;;;;;11.48;9.20;;;0.60;99.90;;;;;;5030383;28;20034;-69
2022/04/02 11:54:48;;;;;;;10.00;8.38;;;0.60;99.90;;;;;;5029885;28;20493;-69
2022/04/02 11:57:15;;;;;;;;;;;0.60;99.90;;;;;;5030805;28;20037;-70
2022/04/02 11:59:55;;;;;;;10.93;8.35;;;0.60;99.90;;;;;;5030339;28;20353;-70
2022/04/02 12:02:39;;;;;;;9.63;7.78;;;0.80;99.90;;;;;;5030608;28;20103;-68
2022/04/02 12:05:07;;;;;;;10.13;8.57;;;1.00;99.90;;;;;;5031654;28;20496;-68
2022/04/02 12:07:45;;;;;;;9.90;8.73;;;0.90;99.90;;;;;;5030462;28;20045;-68
2022/04/02 12:10:17;;;;;;;11.77;8.90;;;0.90;99.90;;;;;;5011568;28;20477;-68
2022/04/02 12:12:45;;;;;;;10.75;8.60;;;0.80;99.90;;;;;;5029843;28;20111;-68
2022/04/02 12:15:12;;;;;;;9.02;7.82;;;0.80;99.90;;;;;;5030222;28;20033;-69
2022/04/02 12:17:40;;;;;;;8.75;7.85;;;0.90;99.90;;;;;;5033651;28;20088;-68
2022/04/02 12:20:10;;;;;;;10.57;8.65;;;0.90;99.90;;;;;;5030926;28;20036;-69
2022/04/02 12:22:39;;;;;;;9.23;8.18;;;0.90;99.90;;;;;;5029157;28;20045;-68
2022/04/02 12:25:08;;;;;;;10.10;8.45;;;0.90;99.90;;;;;;5029118;28;20084;-69
2022/04/02 12:27:38;;;;;;;9.27;8.07;;;1.00;99.90;;;;;;5029212;28;20115;-69
2022/04/02 12:30:10;;;;;;;10.90;8.95;;;1.10;99.90;;;;;;5020532;28;20045;-70
2022/04/02 12:32:40;;;;;;;10.05;8.35;;;1.10;99.90;;;;;;5013263;28;20144;-68
2022/04/02 12:35:24;;;;;;;;;;;1.20;99.90;;;;;;5030437;28;20388;-69
2022/04/02 12:37:55;;;;;;;9.20;7.63;;;1.30;99.90;;;;;;5030991;28;19917;-69
2022/04/02 12:40:22;;;;;;;10.68;8.15;;;1.10;99.90;;;;;;5034471;28;20509;-68
2022/04/02 12:42:53;;;;;;;11.40;8.75;;;1.20;99.90;;;;;;5033113;28;20413;-68
2022/04/02 12:45:21;;;;;;;11.52;8.38;;;1.40;99.90;;;;;;5033428;28;20393;-68
2022/04/02 12:48:06;;;;;;;9.80;8.15;;;1.40;99.90;;;;;;5033750;28;20102;-68
2022/04/02 12:50:38;;;;;;;9.23;8.00;;;1.50;99.90;;;;;;5034047;28;20053;-68
2022/04/02 12:53:05;;;;;;;10.70;8.02;;;1.40;99.90;;;;;;5019331;28;20042;-67
2022/04/02 12:55:34;;;;;;;9.10;8.20;;;1.60;99.90;;;;;;5032287;28;20516;-69
2022/04/02 12:58:07;;;;;;;11.95;8.60;;;1.60;99.90;;;;;;5034096;28;20041;-72